DARK10 KDYS-KDYS
Flight info
| Callsign | DARK10 |
|---|---|
| Flight time | 1h 22m |
| Altitude | 11000 |
| Route | TQA BGS033012 IR128/D0100 MAF109060 SJT |
| Aircraft | B1/H-VGDW/C |
Departure
| Time | 2026-04-21 15:14 |
|---|---|
| Airport | Dyess Air Force Base (KDYS) |
Arrival
| Time | 2026-04-21 16:36 |
|---|---|
| Airport | Dyess Air Force Base (KDYS) |
| Time | Latitude | Longitude | Altitude | Speed | Heading |
|---|---|---|---|---|---|
| 2026-04-21 14:47 | 32.41632 | -99.84893 | 1848 ft | 0 kts | 78° |
| 2026-04-21 15:02 | 32.41633 | -99.84885 | 1846 ft | 5 kts | 79° |
| 2026-04-21 15:03 | 32.41649 | -99.84838 | 1848 ft | 5 kts | 32° |
| 2026-04-21 15:03 | 32.41696 | -99.84837 | 1848 ft | 8 kts | 349° |
| 2026-04-21 15:03 | 32.41770 | -99.84854 | 1845 ft | 11 kts | 349° |
| 2026-04-21 15:03 | 32.41844 | -99.84870 | 1847 ft | 10 kts | 347° |
| 2026-04-21 15:04 | 32.41871 | -99.84906 | 1846 ft | 7 kts | 275° |
| 2026-04-21 15:04 | 32.41861 | -99.84974 | 1844 ft | 9 kts | 256° |
| 2026-04-21 15:04 | 32.41876 | -99.85023 | 1847 ft | 6 kts | 331° |
| 2026-04-21 15:04 | 32.41920 | -99.85034 | 1843 ft | 8 kts | 349° |
| 2026-04-21 15:05 | 32.41991 | -99.85050 | 1844 ft | 12 kts | 349° |
| 2026-04-21 15:05 | 32.42185 | -99.85095 | 1845 ft | 16 kts | 349° |
| 2026-04-21 15:05 | 32.42295 | -99.85120 | 1846 ft | 16 kts | 349° |
| 2026-04-21 15:06 | 32.42409 | -99.85146 | 1846 ft | 17 kts | 349° |
| 2026-04-21 15:06 | 32.42517 | -99.85172 | 1846 ft | 16 kts | 348° |
| 2026-04-21 15:06 | 32.42630 | -99.85199 | 1849 ft | 17 kts | 348° |
| 2026-04-21 15:06 | 32.42754 | -99.85228 | 1848 ft | 19 kts | 349° |
| 2026-04-21 15:07 | 32.42878 | -99.85256 | 1850 ft | 17 kts | 349° |
| 2026-04-21 15:07 | 32.42992 | -99.85282 | 1850 ft | 17 kts | 349° |
| 2026-04-21 15:07 | 32.43107 | -99.85309 | 1848 ft | 16 kts | 348° |
| 2026-04-21 15:07 | 32.43203 | -99.85338 | 1849 ft | 13 kts | 333° |
| 2026-04-21 15:08 | 32.43296 | -99.85367 | 1847 ft | 15 kts | 348° |
| 2026-04-21 15:08 | 32.43405 | -99.85393 | 1848 ft | 17 kts | 349° |
| 2026-04-21 15:08 | 32.43521 | -99.85420 | 1846 ft | 17 kts | 349° |
| 2026-04-21 15:08 | 32.43638 | -99.85447 | 1847 ft | 18 kts | 349° |
| 2026-04-21 15:09 | 32.43756 | -99.85474 | 1847 ft | 18 kts | 348° |
| 2026-04-21 15:09 | 32.43878 | -99.85506 | 1849 ft | 17 kts | 339° |
| 2026-04-21 15:09 | 32.43928 | -99.85617 | 1850 ft | 16 kts | 261° |
| 2026-04-21 15:09 | 32.43908 | -99.85745 | 1849 ft | 10 kts | 259° |
| 2026-04-21 15:10 | 32.43906 | -99.85755 | 1849 ft | 0 kts | 259° |
| 2026-04-21 15:12 | 32.43906 | -99.85757 | 1848 ft | 2 kts | 259° |
| 2026-04-21 15:12 | 32.43892 | -99.85827 | 1849 ft | 12 kts | 250° |
| 2026-04-21 15:12 | 32.43834 | -99.85869 | 1848 ft | 4 kts | 171° |
| 2026-04-21 15:12 | 32.43831 | -99.85868 | 1849 ft | 0 kts | 169° |
| 2026-04-21 15:13 | 32.43732 | -99.85844 | 1851 ft | 48 kts | 169° |
| 2026-04-21 15:13 | 32.43139 | -99.85707 | 1846 ft | 123 kts | 169° |
| 2026-04-21 15:13 | 32.42095 | -99.85464 | 1883 ft | 179 kts | 169° |
| 2026-04-21 15:13 | 32.40813 | -99.85159 | 2086 ft | 201 kts | 169° |
| 2026-04-21 15:14 | 32.39402 | -99.84832 | 2344 ft | 212 kts | 169° |
| 2026-04-21 15:14 | 32.37957 | -99.84527 | 2607 ft | 210 kts | 170° |
| 2026-04-21 15:14 | 32.36531 | -99.84234 | 2847 ft | 205 kts | 171° |
| 2026-04-21 15:14 | 32.35098 | -99.83942 | 3152 ft | 210 kts | 171° |
| 2026-04-21 15:15 | 32.33680 | -99.83646 | 3441 ft | 208 kts | 172° |
| 2026-04-21 15:15 | 32.32229 | -99.83356 | 3771 ft | 214 kts | 173° |
| 2026-04-21 15:15 | 32.30791 | -99.83080 | 4192 ft | 205 kts | 173° |
| 2026-04-21 15:15 | 32.29383 | -99.82812 | 4539 ft | 206 kts | 174° |
| 2026-04-21 15:16 | 32.27917 | -99.82541 | 5147 ft | 215 kts | 175° |
| 2026-04-21 15:16 | 32.26453 | -99.82267 | 5949 ft | 213 kts | 174° |
| 2026-04-21 15:16 | 32.25043 | -99.82054 | 6620 ft | 200 kts | 187° |
| 2026-04-21 15:16 | 32.23949 | -99.82997 | 7498 ft | 206 kts | 248° |
| 2026-04-21 15:17 | 32.23975 | -99.84638 | 8352 ft | 210 kts | 290° |
| 2026-04-21 15:17 | 32.24511 | -99.86262 | 9220 ft | 213 kts | 290° |
| 2026-04-21 15:17 | 32.24947 | -99.87958 | 10110 ft | 217 kts | 282° |
| 2026-04-21 15:17 | 32.25264 | -99.89711 | 11152 ft | 225 kts | 282° |
| 2026-04-21 15:18 | 32.25630 | -99.91596 | 12158 ft | 246 kts | 283° |
| 2026-04-21 15:18 | 32.26066 | -99.93797 | 12060 ft | 307 kts | 283° |
| 2026-04-21 15:18 | 32.26601 | -99.96492 | 12010 ft | 356 kts | 283° |
| 2026-04-21 15:18 | 32.27156 | -99.99285 | 12001 ft | 346 kts | 283° |
| 2026-04-21 15:19 | 32.27714 | -100.02076 | 12000 ft | 350 kts | 283° |
| 2026-04-21 15:19 | 32.28281 | -100.04859 | 11998 ft | 347 kts | 283° |
| 2026-04-21 15:19 | 32.28848 | -100.07618 | 11992 ft | 347 kts | 284° |
| 2026-04-21 15:19 | 32.29437 | -100.10450 | 11998 ft | 375 kts | 284° |
| 2026-04-21 15:20 | 32.30083 | -100.13589 | 11997 ft | 420 kts | 283° |
| 2026-04-21 15:20 | 32.30806 | -100.17137 | 11994 ft | 461 kts | 283° |
| 2026-04-21 15:20 | 32.31555 | -100.20877 | 11995 ft | 460 kts | 283° |
| 2026-04-21 15:20 | 32.32290 | -100.24552 | 12001 ft | 462 kts | 283° |
| 2026-04-21 15:21 | 32.33031 | -100.28290 | 12008 ft | 462 kts | 283° |
| 2026-04-21 15:21 | 32.33773 | -100.32016 | 12024 ft | 470 kts | 283° |
| 2026-04-21 15:21 | 32.34549 | -100.35899 | 12034 ft | 512 kts | 283° |
| 2026-04-21 15:21 | 32.35395 | -100.40120 | 12049 ft | 548 kts | 283° |
| 2026-04-21 15:22 | 32.36304 | -100.44622 | 12055 ft | 570 kts | 283° |
| 2026-04-21 15:22 | 32.37221 | -100.49232 | 12054 ft | 576 kts | 283° |
| 2026-04-21 15:22 | 32.38141 | -100.53813 | 12049 ft | 576 kts | 283° |
| 2026-04-21 15:22 | 32.39055 | -100.58437 | 12044 ft | 582 kts | 283° |
| 2026-04-21 15:23 | 32.39980 | -100.63125 | 12030 ft | 582 kts | 283° |
| 2026-04-21 15:23 | 32.40906 | -100.67801 | 12017 ft | 583 kts | 283° |
| 2026-04-21 15:23 | 32.41810 | -100.72439 | 12003 ft | 583 kts | 283° |
| 2026-04-21 15:23 | 32.42745 | -100.77141 | 11987 ft | 584 kts | 283° |
| 2026-04-21 15:24 | 32.43648 | -100.81784 | 11968 ft | 583 kts | 283° |
| 2026-04-21 15:24 | 32.44574 | -100.86470 | 11977 ft | 576 kts | 283° |
| 2026-04-21 15:24 | 32.45465 | -100.91028 | 11983 ft | 574 kts | 283° |
| 2026-04-21 15:24 | 32.46363 | -100.95632 | 11984 ft | 573 kts | 283° |
| 2026-04-21 15:25 | 32.47265 | -101.00242 | 11986 ft | 573 kts | 283° |
| 2026-04-21 15:25 | 32.48153 | -101.04831 | 11987 ft | 578 kts | 283° |
| 2026-04-21 15:25 | 32.49063 | -101.09494 | 11986 ft | 580 kts | 283° |
| 2026-04-21 15:25 | 32.49958 | -101.14164 | 11975 ft | 579 kts | 283° |
| 2026-04-21 15:26 | 32.50858 | -101.18786 | 11971 ft | 579 kts | 283° |
| 2026-04-21 15:26 | 32.51755 | -101.23452 | 11903 ft | 578 kts | 283° |
| 2026-04-21 15:26 | 32.53027 | -101.27973 | 10761 ft | 581 kts | 298° |
| 2026-04-21 15:26 | 32.55587 | -101.31574 | 10099 ft | 562 kts | 320° |
| 2026-04-21 15:27 | 32.58779 | -101.34015 | 9992 ft | 553 kts | 335° |
| 2026-04-21 15:27 | 32.62343 | -101.35693 | 9933 ft | 544 kts | 340° |
| 2026-04-21 15:27 | 32.65953 | -101.37236 | 9958 ft | 556 kts | 341° |
| 2026-04-21 15:27 | 32.69548 | -101.38700 | 9907 ft | 546 kts | 340° |
| 2026-04-21 15:28 | 32.73143 | -101.40139 | 9882 ft | 547 kts | 342° |
| 2026-04-21 15:28 | 32.76845 | -101.41507 | 9965 ft | 562 kts | 344° |
| 2026-04-21 15:28 | 32.80612 | -101.42705 | 9960 ft | 556 kts | 345° |
| 2026-04-21 15:28 | 32.84321 | -101.43795 | 9877 ft | 540 kts | 346° |
| 2026-04-21 15:29 | 32.87921 | -101.44808 | 9912 ft | 535 kts | 346° |
| 2026-04-21 15:29 | 32.91584 | -101.45859 | 9426 ft | 541 kts | 345° |
| 2026-04-21 15:29 | 32.95230 | -101.46947 | 7824 ft | 550 kts | 345° |
| 2026-04-21 15:29 | 32.98898 | -101.48432 | 5337 ft | 563 kts | 330° |
| 2026-04-21 15:30 | 33.02003 | -101.51321 | 3300 ft | 573 kts | 309° |
| 2026-04-21 15:30 | 33.04029 | -101.55266 | 3239 ft | 555 kts | 290° |
| 2026-04-21 15:30 | 33.05023 | -101.59740 | 3286 ft | 568 kts | 281° |
| 2026-04-21 15:30 | 33.05847 | -101.64426 | 3265 ft | 578 kts | 279° |
| 2026-04-21 15:31 | 33.06105 | -101.69191 | 3452 ft | 575 kts | 265° |
| 2026-04-21 15:31 | 33.05435 | -101.73842 | 3535 ft | 574 kts | 252° |
| 2026-04-21 15:31 | 33.03670 | -101.78125 | 3430 ft | 576 kts | 236° |
| 2026-04-21 15:31 | 33.01424 | -101.81941 | 3435 ft | 557 kts | 234° |
| 2026-04-21 15:32 | 32.99199 | -101.85602 | 3464 ft | 548 kts | 233° |
| 2026-04-21 15:32 | 32.96930 | -101.89258 | 3516 ft | 553 kts | 234° |
| 2026-04-21 15:32 | 32.94932 | -101.93255 | 3611 ft | 562 kts | 245° |
| 2026-04-21 15:32 | 32.93840 | -101.97699 | 3567 ft | 570 kts | 261° |
| 2026-04-21 15:33 | 32.93523 | -102.02374 | 3504 ft | 557 kts | 265° |
| 2026-04-21 15:33 | 32.93262 | -102.06913 | 3550 ft | 556 kts | 265° |
| 2026-04-21 15:33 | 32.93042 | -102.11544 | 3589 ft | 559 kts | 266° |
| 2026-04-21 15:33 | 32.92956 | -102.16122 | 3632 ft | 558 kts | 269° |
| 2026-04-21 15:34 | 32.93090 | -102.20735 | 3642 ft | 553 kts | 273° |
| 2026-04-21 15:34 | 32.93478 | -102.25269 | 3637 ft | 540 kts | 276° |
| 2026-04-21 15:34 | 32.94055 | -102.29660 | 3612 ft | 549 kts | 280° |
| 2026-04-21 15:34 | 32.95135 | -102.34059 | 3597 ft | 551 kts | 294° |
| 2026-04-21 15:35 | 32.97238 | -102.37692 | 3620 ft | 530 kts | 313° |
| 2026-04-21 15:35 | 32.99863 | -102.40923 | 3646 ft | 550 kts | 313° |
| 2026-04-21 15:35 | 33.02435 | -102.44415 | 3731 ft | 568 kts | 309° |
| 2026-04-21 15:35 | 33.05000 | -102.47979 | 3811 ft | 577 kts | 310° |
| 2026-04-21 15:36 | 33.07618 | -102.51642 | 3814 ft | 572 kts | 309° |
| 2026-04-21 15:36 | 33.10137 | -102.55179 | 3864 ft | 562 kts | 309° |
| 2026-04-21 15:36 | 33.12698 | -102.58789 | 3844 ft | 565 kts | 309° |
| 2026-04-21 15:36 | 33.15192 | -102.62276 | 3848 ft | 551 kts | 309° |
| 2026-04-21 15:37 | 33.17708 | -102.65799 | 3964 ft | 561 kts | 309° |
| 2026-04-21 15:37 | 33.20379 | -102.69243 | 4057 ft | 571 kts | 314° |
| 2026-04-21 15:37 | 33.23191 | -102.72573 | 4128 ft | 572 kts | 314° |
| 2026-04-21 15:37 | 33.25984 | -102.75917 | 4067 ft | 564 kts | 314° |
| 2026-04-21 15:38 | 33.28778 | -102.79285 | 4123 ft | 572 kts | 313° |
| 2026-04-21 15:38 | 33.31461 | -102.82756 | 4245 ft | 574 kts | 306° |
| 2026-04-21 15:38 | 33.33658 | -102.86694 | 4446 ft | 564 kts | 300° |
| 2026-04-21 15:38 | 33.35603 | -102.90736 | 4319 ft | 549 kts | 298° |
| 2026-04-21 15:39 | 33.37540 | -102.94627 | 4242 ft | 554 kts | 308° |
| 2026-04-21 15:39 | 33.40783 | -102.97236 | 4216 ft | 579 kts | 339° |
| 2026-04-21 15:39 | 33.44731 | -102.98220 | 4240 ft | 588 kts | 350° |
| 2026-04-21 15:39 | 33.48799 | -102.99002 | 4228 ft | 594 kts | 350° |
| 2026-04-21 15:40 | 33.52861 | -102.99632 | 4339 ft | 591 kts | 357° |
| 2026-04-21 15:40 | 33.56853 | -102.98750 | 4304 ft | 586 kts | 32° |
| 2026-04-21 15:40 | 33.59800 | -102.95459 | 4301 ft | 582 kts | 45° |
| 2026-04-21 15:40 | 33.62644 | -102.92013 | 4295 ft | 572 kts | 46° |
| 2026-04-21 15:41 | 33.65658 | -102.89035 | 4487 ft | 573 kts | 29° |
| 2026-04-21 15:41 | 33.69507 | -102.87731 | 4141 ft | 580 kts | 359° |
| 2026-04-21 15:41 | 33.73405 | -102.88281 | 4335 ft | 547 kts | 350° |
| 2026-04-21 15:41 | 33.77236 | -102.89053 | 4276 ft | 572 kts | 349° |
| 2026-04-21 15:42 | 33.81028 | -102.90312 | 4310 ft | 567 kts | 322° |
| 2026-04-21 15:42 | 33.82979 | -102.94164 | 4399 ft | 538 kts | 275° |
| 2026-04-21 15:42 | 33.82575 | -102.98514 | 4376 ft | 529 kts | 252° |
| 2026-04-21 15:42 | 33.81487 | -103.02856 | 4284 ft | 552 kts | 251° |
| 2026-04-21 15:43 | 33.80289 | -103.07312 | 4282 ft | 565 kts | 251° |
| 2026-04-21 15:43 | 33.79061 | -103.11765 | 4443 ft | 568 kts | 250° |
| 2026-04-21 15:43 | 33.77693 | -103.16165 | 4520 ft | 544 kts | 242° |
| 2026-04-21 15:43 | 33.75233 | -103.19276 | 4342 ft | 519 kts | 200° |
| 2026-04-21 15:44 | 33.71705 | -103.20230 | 4406 ft | 529 kts | 191° |
| 2026-04-21 15:44 | 33.68070 | -103.21379 | 4485 ft | 558 kts | 201° |
| 2026-04-21 15:44 | 33.64517 | -103.23525 | 4504 ft | 577 kts | 212° |
| 2026-04-21 15:44 | 33.61166 | -103.26141 | 4470 ft | 572 kts | 213° |
| 2026-04-21 15:45 | 33.57828 | -103.28776 | 4466 ft | 578 kts | 213° |
| 2026-04-21 15:45 | 33.54488 | -103.31421 | 4495 ft | 579 kts | 213° |
| 2026-04-21 15:45 | 33.51141 | -103.34083 | 4478 ft | 571 kts | 213° |
| 2026-04-21 15:45 | 33.47855 | -103.36692 | 4484 ft | 564 kts | 213° |
| 2026-04-21 15:46 | 33.44607 | -103.39270 | 4543 ft | 552 kts | 213° |
| 2026-04-21 15:46 | 33.41459 | -103.41768 | 4537 ft | 546 kts | 213° |
| 2026-04-21 15:46 | 33.38203 | -103.44350 | 4574 ft | 566 kts | 213° |
| 2026-04-21 15:46 | 33.34932 | -103.46974 | 4655 ft | 577 kts | 213° |
| 2026-04-21 15:47 | 33.31567 | -103.49678 | 4659 ft | 582 kts | 213° |
| 2026-04-21 15:47 | 33.28197 | -103.52307 | 4594 ft | 585 kts | 212° |
| 2026-04-21 15:47 | 33.24718 | -103.54908 | 4509 ft | 585 kts | 211° |
| 2026-04-21 15:47 | 33.21326 | -103.57444 | 4604 ft | 576 kts | 212° |
| 2026-04-21 15:48 | 33.17967 | -103.59935 | 4720 ft | 563 kts | 212° |
| 2026-04-21 15:48 | 33.14539 | -103.62303 | 4849 ft | 571 kts | 205° |
| 2026-04-21 15:48 | 33.10756 | -103.63739 | 4865 ft | 576 kts | 192° |
| 2026-04-21 15:48 | 33.06798 | -103.64185 | 5095 ft | 567 kts | 181° |
| 2026-04-21 15:49 | 33.02831 | -103.64101 | 4814 ft | 566 kts | 179° |
| 2026-04-21 15:49 | 32.98971 | -103.64016 | 4645 ft | 555 kts | 179° |
| 2026-04-21 15:49 | 32.95135 | -103.63925 | 4550 ft | 542 kts | 179° |
| 2026-04-21 15:49 | 32.91328 | -103.63881 | 4512 ft | 560 kts | 181° |
| 2026-04-21 15:50 | 32.87420 | -103.64204 | 4448 ft | 557 kts | 187° |
| 2026-04-21 15:50 | 32.83589 | -103.64937 | 4443 ft | 559 kts | 192° |
| 2026-04-21 15:50 | 32.79879 | -103.66014 | 4468 ft | 549 kts | 195° |
| 2026-04-21 15:50 | 32.76155 | -103.67127 | 4380 ft | 559 kts | 192° |
| 2026-04-21 15:51 | 32.72264 | -103.67843 | 4271 ft | 566 kts | 186° |
| 2026-04-21 15:51 | 32.68338 | -103.68184 | 4037 ft | 561 kts | 183° |
| 2026-04-21 15:51 | 32.64492 | -103.68465 | 4003 ft | 554 kts | 184° |
| 2026-04-21 15:51 | 32.60589 | -103.68766 | 3988 ft | 577 kts | 184° |
| 2026-04-21 15:52 | 32.56563 | -103.69095 | 3999 ft | 593 kts | 184° |
| 2026-04-21 15:52 | 32.52355 | -103.69446 | 3967 ft | 604 kts | 184° |
| 2026-04-21 15:52 | 32.49552 | -103.69691 | 4000 ft | 608 kts | 184° |
| 2026-04-21 15:52 | 32.43932 | -103.70204 | 4103 ft | 610 kts | 184° |
| 2026-04-21 15:53 | 32.39706 | -103.70606 | 4088 ft | 611 kts | 185° |
| 2026-04-21 15:53 | 32.35495 | -103.71002 | 4041 ft | 611 kts | 184° |
| 2026-04-21 15:53 | 32.31255 | -103.70729 | 3917 ft | 610 kts | 164° |
| 2026-04-21 15:53 | 32.27852 | -103.67917 | 4043 ft | 608 kts | 129° |
| 2026-04-21 15:54 | 32.25375 | -103.63918 | 4086 ft | 611 kts | 126° |
| 2026-04-21 15:54 | 32.22869 | -103.59805 | 4000 ft | 618 kts | 126° |
| 2026-04-21 15:54 | 32.20343 | -103.55630 | 3927 ft | 620 kts | 125° |
| 2026-04-21 15:54 | 32.18706 | -103.51041 | 3925 ft | 620 kts | 96° |
| 2026-04-21 15:55 | 32.18945 | -103.45955 | 3890 ft | 618 kts | 84° |
| 2026-04-21 15:55 | 32.19562 | -103.40978 | 3773 ft | 620 kts | 78° |
| 2026-04-21 15:55 | 32.20574 | -103.36026 | 3685 ft | 618 kts | 76° |
| 2026-04-21 15:55 | 32.21623 | -103.31122 | 3719 ft | 619 kts | 76° |
| 2026-04-21 15:56 | 32.22676 | -103.26222 | 3708 ft | 619 kts | 76° |
| 2026-04-21 15:56 | 32.23396 | -103.21192 | 3793 ft | 615 kts | 87° |
| 2026-04-21 15:56 | 32.23041 | -103.16227 | 3701 ft | 615 kts | 105° |
| 2026-04-21 15:56 | 32.21279 | -103.11644 | 3724 ft | 612 kts | 120° |
| 2026-04-21 15:57 | 32.18944 | -103.07401 | 3681 ft | 614 kts | 130° |
| 2026-04-21 15:57 | 32.15561 | -103.04452 | 3515 ft | 614 kts | 154° |
| 2026-04-21 15:57 | 32.11683 | -103.02323 | 3515 ft | 612 kts | 155° |
| 2026-04-21 15:57 | 32.07865 | -103.00210 | 3451 ft | 614 kts | 155° |
| 2026-04-21 15:58 | 32.03961 | -102.98072 | 3471 ft | 614 kts | 155° |
| 2026-04-21 15:58 | 32.00130 | -102.95977 | 3509 ft | 613 kts | 155° |
| 2026-04-21 15:58 | 31.96229 | -102.93870 | 3534 ft | 613 kts | 155° |
| 2026-04-21 15:58 | 31.92376 | -102.91794 | 3517 ft | 613 kts | 155° |
| 2026-04-21 15:59 | 31.89792 | -102.90399 | 3507 ft | 614 kts | 155° |
| 2026-04-21 15:59 | 31.84618 | -102.87607 | 3467 ft | 612 kts | 154° |
| 2026-04-21 15:59 | 31.80994 | -102.84947 | 3456 ft | 615 kts | 142° |
| 2026-04-21 15:59 | 31.78870 | -102.82699 | 3362 ft | 619 kts | 135° |
| 2026-04-21 16:00 | 31.76035 | -102.78862 | 3350 ft | 618 kts | 127° |
| 2026-04-21 16:00 | 31.73722 | -102.74683 | 3299 ft | 617 kts | 119° |
| 2026-04-21 16:00 | 31.71855 | -102.70120 | 3264 ft | 616 kts | 115° |
| 2026-04-21 16:00 | 31.70093 | -102.65520 | 3383 ft | 614 kts | 114° |
| 2026-04-21 16:01 | 31.68441 | -102.60949 | 3322 ft | 614 kts | 113° |
| 2026-04-21 16:01 | 31.66758 | -102.56308 | 3187 ft | 616 kts | 114° |
| 2026-04-21 16:01 | 31.65008 | -102.51768 | 3221 ft | 613 kts | 115° |
| 2026-04-21 16:01 | 31.63172 | -102.47196 | 3152 ft | 619 kts | 116° |
| 2026-04-21 16:02 | 31.61362 | -102.42646 | 3071 ft | 624 kts | 116° |
| 2026-04-21 16:02 | 31.59509 | -102.38016 | 3079 ft | 626 kts | 116° |
| 2026-04-21 16:02 | 31.57652 | -102.33434 | 3132 ft | 625 kts | 116° |
| 2026-04-21 16:02 | 31.55766 | -102.28807 | 3176 ft | 620 kts | 116° |
| 2026-04-21 16:03 | 31.54032 | -102.24252 | 3346 ft | 613 kts | 111° |
| 2026-04-21 16:03 | 31.52994 | -102.19450 | 3522 ft | 610 kts | 99° |
| 2026-04-21 16:03 | 31.52650 | -102.14474 | 3393 ft | 614 kts | 92° |
| 2026-04-21 16:03 | 31.52546 | -102.09436 | 3386 ft | 612 kts | 91° |
| 2026-04-21 16:04 | 31.52573 | -102.04500 | 3260 ft | 612 kts | 89° |
| 2026-04-21 16:04 | 31.52645 | -101.99501 | 3279 ft | 608 kts | 90° |
| 2026-04-21 16:04 | 31.52700 | -101.94641 | 3868 ft | 599 kts | 90° |
| 2026-04-21 16:04 | 31.52742 | -101.89771 | 5129 ft | 590 kts | 90° |
| 2026-04-21 16:05 | 31.52745 | -101.84936 | 6144 ft | 596 kts | 90° |
| 2026-04-21 16:05 | 31.52723 | -101.79996 | 6207 ft | 614 kts | 91° |
| 2026-04-21 16:05 | 31.52501 | -101.75034 | 6550 ft | 618 kts | 96° |
| 2026-04-21 16:05 | 31.51989 | -101.69992 | 6747 ft | 622 kts | 96° |
| 2026-04-21 16:06 | 31.51811 | -101.64947 | 6844 ft | 627 kts | 90° |
| 2026-04-21 16:06 | 31.51701 | -101.59842 | 7040 ft | 627 kts | 94° |
| 2026-04-21 16:06 | 31.51358 | -101.54718 | 7019 ft | 622 kts | 93° |
| 2026-04-21 16:06 | 31.51236 | -101.49697 | 7097 ft | 617 kts | 93° |
| 2026-04-21 16:07 | 31.50979 | -101.44748 | 7812 ft | 607 kts | 93° |
| 2026-04-21 16:07 | 31.50827 | -101.39833 | 8551 ft | 602 kts | 92° |
| 2026-04-21 16:07 | 31.50613 | -101.34925 | 9310 ft | 600 kts | 93° |
| 2026-04-21 16:07 | 31.50446 | -101.30021 | 10066 ft | 600 kts | 92° |
| 2026-04-21 16:08 | 31.50017 | -101.20169 | 10794 ft | 611 kts | 94° |
| 2026-04-21 16:08 | 31.49365 | -101.15279 | 10910 ft | 615 kts | 103° |
| 2026-04-21 16:08 | 31.48453 | -101.10361 | 10963 ft | 620 kts | 99° |
| 2026-04-21 16:09 | 31.47729 | -101.05361 | 10989 ft | 623 kts | 102° |
| 2026-04-21 16:09 | 31.46868 | -101.00418 | 10999 ft | 625 kts | 101° |
| 2026-04-21 16:09 | 31.46070 | -100.95405 | 11009 ft | 626 kts | 101° |
| 2026-04-21 16:09 | 31.45212 | -100.90444 | 11014 ft | 628 kts | 101° |
| 2026-04-21 16:10 | 31.44377 | -100.85371 | 11023 ft | 629 kts | 101° |
| 2026-04-21 16:10 | 31.43521 | -100.80388 | 11032 ft | 629 kts | 101° |
| 2026-04-21 16:10 | 31.42684 | -100.75320 | 11046 ft | 630 kts | 101° |
| 2026-04-21 16:10 | 31.41824 | -100.70341 | 11056 ft | 630 kts | 102° |
| 2026-04-21 16:11 | 31.40958 | -100.65274 | 11067 ft | 631 kts | 101° |
| 2026-04-21 16:11 | 31.40085 | -100.60288 | 11088 ft | 630 kts | 102° |
| 2026-04-21 16:11 | 31.39221 | -100.55390 | 11088 ft | 592 kts | 102° |
| 2026-04-21 16:11 | 31.38429 | -100.50830 | 11091 ft | 564 kts | 102° |
| 2026-04-21 16:12 | 31.37841 | -100.46372 | 11080 ft | 539 kts | 92° |
| 2026-04-21 16:12 | 31.38304 | -100.42119 | 11080 ft | 520 kts | 72° |
| 2026-04-21 16:12 | 31.39906 | -100.38452 | 11092 ft | 506 kts | 52° |
| 2026-04-21 16:12 | 31.42409 | -100.35656 | 11096 ft | 484 kts | 32° |
| 2026-04-21 16:13 | 31.45346 | -100.34109 | 11089 ft | 446 kts | 12° |
| 2026-04-21 16:13 | 31.48412 | -100.33479 | 11080 ft | 450 kts | 7° |
| 2026-04-21 16:13 | 31.51525 | -100.32890 | 11055 ft | 449 kts | 8° |
| 2026-04-21 16:13 | 31.54572 | -100.32185 | 11044 ft | 449 kts | 9° |
| 2026-04-21 16:14 | 31.57690 | -100.31756 | 11043 ft | 446 kts | 0° |
| 2026-04-21 16:14 | 31.60795 | -100.31637 | 11037 ft | 447 kts | 1° |
| 2026-04-21 16:14 | 31.63935 | -100.31429 | 11030 ft | 446 kts | 1° |
| 2026-04-21 16:14 | 31.67035 | -100.31225 | 11019 ft | 447 kts | 1° |
| 2026-04-21 16:15 | 31.70178 | -100.31000 | 11022 ft | 447 kts | 1° |
| 2026-04-21 16:15 | 31.73268 | -100.30770 | 11018 ft | 449 kts | 2° |
| 2026-04-21 16:15 | 31.76389 | -100.30528 | 11024 ft | 450 kts | 2° |
| 2026-04-21 16:15 | 31.79512 | -100.30278 | 11024 ft | 451 kts | 2° |
| 2026-04-21 16:16 | 31.82660 | -100.30024 | 11030 ft | 452 kts | 2° |
| 2026-04-21 16:16 | 31.85793 | -100.29779 | 11028 ft | 452 kts | 2° |
| 2026-04-21 16:16 | 31.88893 | -100.29532 | 11028 ft | 453 kts | 2° |
| 2026-04-21 16:16 | 31.92024 | -100.29274 | 11031 ft | 453 kts | 2° |
| 2026-04-21 16:17 | 31.95117 | -100.29006 | 11032 ft | 452 kts | 2° |
| 2026-04-21 16:17 | 31.98250 | -100.28724 | 11028 ft | 451 kts | 2° |
| 2026-04-21 16:17 | 32.01382 | -100.28441 | 11026 ft | 450 kts | 2° |
| 2026-04-21 16:17 | 32.04489 | -100.28163 | 11026 ft | 449 kts | 2° |
| 2026-04-21 16:18 | 32.07586 | -100.27892 | 11028 ft | 447 kts | 2° |
| 2026-04-21 16:18 | 32.10717 | -100.27626 | 11022 ft | 446 kts | 2° |
| 2026-04-21 16:18 | 32.13850 | -100.27363 | 11025 ft | 443 kts | 2° |
| 2026-04-21 16:18 | 32.16803 | -100.27113 | 11028 ft | 414 kts | 2° |
| 2026-04-21 16:19 | 32.19588 | -100.26880 | 11039 ft | 389 kts | 2° |
| 2026-04-21 16:19 | 32.22192 | -100.26660 | 11046 ft | 367 kts | 2° |
| 2026-04-21 16:19 | 32.24690 | -100.26446 | 11050 ft | 350 kts | 1° |
| 2026-04-21 16:19 | 32.27071 | -100.26566 | 10778 ft | 336 kts | 351° |
| 2026-04-21 16:20 | 32.29388 | -100.26568 | 10396 ft | 335 kts | 2° |
| 2026-04-21 16:20 | 32.31690 | -100.26274 | 10232 ft | 326 kts | 5° |
| 2026-04-21 16:20 | 32.33882 | -100.25934 | 10157 ft | 314 kts | 5° |
| 2026-04-21 16:20 | 32.35997 | -100.25601 | 10132 ft | 302 kts | 5° |
| 2026-04-21 16:21 | 32.38056 | -100.25312 | 10089 ft | 291 kts | 0° |
| 2026-04-21 16:21 | 32.40003 | -100.25216 | 10051 ft | 269 kts | 0° |
| 2026-04-21 16:21 | 32.41855 | -100.25082 | 9326 ft | 264 kts | 1° |
| 2026-04-21 16:21 | 32.43679 | -100.24952 | 8579 ft | 262 kts | 1° |
| 2026-04-21 16:22 | 32.45468 | -100.24705 | 7840 ft | 261 kts | 8° |
| 2026-04-21 16:22 | 32.47268 | -100.24311 | 7112 ft | 260 kts | 9° |
| 2026-04-21 16:22 | 32.49028 | -100.23921 | 6406 ft | 259 kts | 10° |
| 2026-04-21 16:22 | 32.50788 | -100.23462 | 5684 ft | 257 kts | 16° |
| 2026-04-21 16:23 | 32.52432 | -100.22763 | 5307 ft | 243 kts | 20° |
| 2026-04-21 16:23 | 32.53965 | -100.22093 | 5129 ft | 223 kts | 20° |
| 2026-04-21 16:23 | 32.55337 | -100.21492 | 5028 ft | 203 kts | 20° |
| 2026-04-21 16:23 | 32.56579 | -100.20824 | 4981 ft | 196 kts | 30° |
| 2026-04-21 16:24 | 32.57787 | -100.20006 | 4996 ft | 199 kts | 31° |
| 2026-04-21 16:24 | 32.58955 | -100.19187 | 4978 ft | 192 kts | 31° |
| 2026-04-21 16:24 | 32.60144 | -100.18351 | 4991 ft | 211 kts | 31° |
| 2026-04-21 16:24 | 32.61390 | -100.17355 | 4973 ft | 212 kts | 40° |
| 2026-04-21 16:25 | 32.62483 | -100.16284 | 4951 ft | 196 kts | 41° |
| 2026-04-21 16:25 | 32.63477 | -100.15286 | 4943 ft | 188 kts | 42° |
| 2026-04-21 16:25 | 32.64545 | -100.14201 | 4964 ft | 214 kts | 43° |
| 2026-04-21 16:25 | 32.65661 | -100.12950 | 4955 ft | 228 kts | 50° |
| 2026-04-21 16:26 | 32.66693 | -100.11509 | 4967 ft | 221 kts | 52° |
| 2026-04-21 16:26 | 32.67630 | -100.10170 | 4951 ft | 199 kts | 53° |
| 2026-04-21 16:26 | 32.68461 | -100.08972 | 4955 ft | 192 kts | 54° |
| 2026-04-21 16:26 | 32.69344 | -100.07655 | 4966 ft | 213 kts | 55° |
| 2026-04-21 16:27 | 32.70123 | -100.06132 | 4948 ft | 215 kts | 65° |
| 2026-04-21 16:27 | 32.70821 | -100.04608 | 4938 ft | 205 kts | 65° |
| 2026-04-21 16:27 | 32.71489 | -100.03155 | 4927 ft | 196 kts | 65° |
| 2026-04-21 16:27 | 32.72132 | -100.01742 | 4934 ft | 197 kts | 65° |
| 2026-04-21 16:28 | 32.72650 | -100.00221 | 4939 ft | 197 kts | 75° |
| 2026-04-21 16:28 | 32.73078 | -99.98694 | 4930 ft | 193 kts | 76° |
| 2026-04-21 16:28 | 32.73196 | -99.97150 | 4831 ft | 199 kts | 102° |
| 2026-04-21 16:28 | 32.72658 | -99.95572 | 4901 ft | 212 kts | 119° |
| 2026-04-21 16:29 | 32.71988 | -99.93991 | 4921 ft | 205 kts | 122° |
| 2026-04-21 16:29 | 32.71403 | -99.92554 | 4914 ft | 185 kts | 121° |
| 2026-04-21 16:29 | 32.70888 | -99.91222 | 4833 ft | 172 kts | 134° |
| 2026-04-21 16:29 | 32.69663 | -99.90758 | 3716 ft | 227 kts | 185° |
| 2026-04-21 16:30 | 32.68141 | -99.90589 | 3259 ft | 201 kts | 168° |
| 2026-04-21 16:30 | 32.66887 | -99.90353 | 3198 ft | 169 kts | 179° |
| 2026-04-21 16:30 | 32.65742 | -99.90339 | 2961 ft | 162 kts | 175° |
| 2026-04-21 16:30 | 32.64572 | -99.90154 | 2906 ft | 171 kts | 174° |
| 2026-04-21 16:31 | 32.63424 | -99.90022 | 2912 ft | 169 kts | 176° |
| 2026-04-21 16:31 | 32.62221 | -99.89914 | 3043 ft | 167 kts | 177° |
| 2026-04-21 16:31 | 32.61102 | -99.89778 | 2935 ft | 161 kts | 174° |
| 2026-04-21 16:31 | 32.59901 | -99.89560 | 3042 ft | 182 kts | 167° |
| 2026-04-21 16:32 | 32.58647 | -99.89224 | 3141 ft | 181 kts | 169° |
| 2026-04-21 16:32 | 32.57423 | -99.89012 | 3144 ft | 185 kts | 172° |
| 2026-04-21 16:32 | 32.56099 | -99.88818 | 3178 ft | 190 kts | 172° |
| 2026-04-21 16:32 | 32.54886 | -99.88549 | 3100 ft | 172 kts | 168° |
| 2026-04-21 16:33 | 32.53703 | -99.88212 | 3042 ft | 175 kts | 166° |
| 2026-04-21 16:33 | 32.52545 | -99.87825 | 3018 ft | 177 kts | 167° |
| 2026-04-21 16:33 | 32.51301 | -99.87549 | 3106 ft | 176 kts | 175° |
| 2026-04-21 16:33 | 32.50130 | -99.87364 | 2672 ft | 181 kts | 169° |
| 2026-04-21 16:34 | 32.48837 | -99.87014 | 2639 ft | 186 kts | 168° |
| 2026-04-21 16:34 | 32.47642 | -99.86642 | 2480 ft | 173 kts | 164° |
| 2026-04-21 16:34 | 32.46493 | -99.86423 | 2329 ft | 164 kts | 174° |
| 2026-04-21 16:34 | 32.45374 | -99.86239 | 2129 ft | 160 kts | 170° |
| 2026-04-21 16:35 | 32.44314 | -99.85985 | 1931 ft | 152 kts | 168° |
| 2026-04-21 16:35 | 32.43313 | -99.85751 | 1816 ft | 136 kts | 167° |
| 2026-04-21 16:35 | 32.42526 | -99.85569 | 1819 ft | 92 kts | 166° |
| 2026-04-21 16:35 | 32.42012 | -99.85446 | 1816 ft | 67 kts | 168° |
| 2026-04-21 16:36 | 32.41543 | -99.85336 | 1813 ft | 70 kts | 169° |
| 2026-04-21 16:36 | 32.41286 | -99.85277 | 1846 ft | 21 kts | 161° |
| 2026-04-21 16:36 | 32.41247 | -99.85139 | 1847 ft | 21 kts | 79° |
| 2026-04-21 16:36 | 32.41275 | -99.84970 | 1846 ft | 21 kts | 78° |
| 2026-04-21 16:37 | 32.41319 | -99.84864 | 1842 ft | 12 kts | 70° |
| 2026-04-21 16:37 | 32.41327 | -99.84815 | 1842 ft | 0 kts | 79° |